Ahvaz International Airport

Airport
ICAO code: 
OIAW
IATA Code: 
AWZ
Summary
ICAO Region: 
MID
Territory: 
Location: 
Ahvaz, Khuzestan
Serving: 
Ahvas
Elevation: 
66 ft
Coordinates: 
Aerial View: 
31° 20' 15" N, 48° 45' 37.001" E
Metar
Observation
OIAW 052300Z 11004KT CAVOK 11/01 Q1016
Station
Ahwaz
Date/Time
2021-12-05 23:00:00
Wind direction
110°
Wind speed
04 kts
Lowest cloud amount
clouds and visibility OK
Temperature
11°C
Dew point
1°C
Humidity
50%
QNH
1016 hPa
Weather condition
n/a

Ahvaz (or Ahwaz) airport serves the city of Ahvaz, west Iran.

Climatology

Hot Desert Climate (Köppen climate classification BWh)

Runways

Designator Length Width Surface Rops
12/30 3398 45 ASP Yes/Yes
Airport map: 
Aerial View: 

SKYbrary Partners:

Safety knowledge contributed by: